TimeMDT,TemperatureF,Dew PointF,Humidity,Sea Level PressureIn,VisibilityMPH,Wind Direction,Wind SpeedMPH,Gust SpeedMPH,PrecipitationIn,Events,Conditions,WindDirDegrees,DateUTC
12:53 AM,45.0,25.0,46,29.82,10.0,South,9.2,-,N/A,,Clear,180,2013-04-05 06:53:00
1:53 AM,44.1,23.0,43,29.82,10.0,Calm,Calm,-,N/A,,Clear,0,2013-04-05 07:53:00
2:53 AM,46.9,19.9,34,29.74,10.0,WSW,19.6,-,N/A,,Clear,240,2013-04-05 08:53:00
3:53 AM,46.9,19.0,33,29.73,10.0,SW,20.7,-,N/A,,Clear,230,2013-04-05 09:53:00
4:53 AM,46.9,19.0,33,29.73,10.0,WSW,13.8,-,N/A,,Clear,240,2013-04-05 10:53:00
5:53 AM,48.9,18.0,29,29.72,10.0,SW,16.1,21.9,N/A,,Clear,230,2013-04-05 11:53:00
6:53 AM,41.0,19.9,43,29.77,10.0,SSW,12.7,-,N/A,,Clear,200,2013-04-05 12:53:00
7:53 AM,44.1,21.9,42,29.78,-9999.0,South,11.5,-,N/A,,Partly Cloudy,190,2013-04-05 13:53:00
8:53 AM,51.1,21.0,31,29.75,10.0,SE,9.2,-,N/A,,Overcast,140,2013-04-05 14:53:00
9:53 AM,57.0,21.0,25,29.70,10.0,SW,16.1,-,N/A,,Mostly Cloudy,220,2013-04-05 15:53:00
10:53 AM,55.0,19.9,25,29.69,10.0,West,19.6,-,N/A,,Overcast,260,2013-04-05 16:53:00
11:53 AM,57.9,19.0,22,29.66,10.0,West,21.9,29.9,N/A,,Mostly Cloudy,260,2013-04-05 17:53:00
12:53 PM,54.0,25.0,33,29.68,10.0,West,27.6,39.1,N/A,,Overcast,270,2013-04-05 18:53:00
1:53 PM,59.0,21.9,24,29.61,10.0,WSW,27.6,36.8,N/A,,Scattered Clouds,250,2013-04-05 19:53:00
2:53 PM,60.1,21.0,22,29.56,10.0,WSW,26.5,38.0,N/A,,Scattered Clouds,250,2013-04-05 20:53:00
3:53 PM,55.9,26.1,32,29.57,10.0,West,27.6,36.8,N/A,,Mostly Cloudy,280,2013-04-05 21:53:00
4:53 PM,55.0,28.9,37,29.61,10.0,West,31.1,40.3,N/A,,Mostly Cloudy,270,2013-04-05 22:53:00
5:53 PM,51.1,30.9,46,29.63,10.0,NNW,15.0,28.8,N/A,,Scattered Clouds,330,2013-04-05 23:53:00
6:04 PM,50.0,32.0,50,29.85,10.0,NW,17.3,25.3,N/A,,Scattered Clouds,320,2013-04-06 00:04:00
6:53 PM,43.0,34.0,71,29.75,10.0,West,15.0,-,0.00,,Overcast,270,2013-04-06 00:53:00
7:53 PM,41.0,30.9,67,29.76,10.0,SSW,8.1,-,N/A,,Clear,210,2013-04-06 01:53:00
8:53 PM,39.0,28.0,65,29.73,-9999.0,WSW,12.7,-,N/A,,Clear,250,2013-04-06 02:53:00
9:53 PM,41.0,27.0,57,29.69,-9999.0,West,17.3,-,N/A,,Scattered Clouds,280,2013-04-06 03:53:00
10:53 PM,39.0,23.0,53,29.73,-9999.0,West,24.2,31.1,N/A,,Clear,280,2013-04-06 04:53:00
11:53 PM,37.9,21.9,53,29.73,-9999.0,West,26.5,33.4,N/A,,Clear,280,2013-04-06 05:53:00